Weather observations for the past three days for
Monticello Regional Airport
Imperial (Metric)
Date Time (cdt) Wind (mph) Vis. (mi.) Weather Sky Cond. Temperature (ºF) Relative Humidity Wind Chill (°F) Heat Index (°F) Pressure Precipitation (in)
Air Dwpt 6 hour altimeter (in) sea level (mb) 1 hr 3 hr 6 hr
Max. Min.
05 20:35 N 10 G 18 10.00 Fair CLR 53.6 26.6 35% 29.82 0.0
05 20:15 N 8 10.00 A Few Clouds FEW080 53.6 26.6 35% 29.81 0.0
05 19:55 N 7 10.00 Fair CLR 53.6 28.4 38% 29.8 0.0
05 19:35 N 7 9.00 Fair CLR 55.4 26.6 33% 29.79 0.0
05 19:15 N 8 8.00 Fair CLR 55.4 26.6 33% 29.79 0.0
05 18:55 N 12 G 21 10.00 Fair CLR 57.2 26.6 31% 29.78 0.0
05 18:35 NW 9 10.00 A Few Clouds FEW080 57.2 26.6 31% 29.77 0.0
05 18:15 NW 14 10.00 A Few Clouds FEW080 57.2 26.6 31% 29.77 0.0
05 17:55 NW 10 10.00 Partly Cloudy SCT080 59 26.6 29% 29.77 0.0
05 17:35 NW 12 10.00 Mostly Cloudy BKN080 59 26.6 29% 29.77 0.0
05 17:15 NW 10 10.00 Partly Cloudy SCT080 59 26.6 29% 29.77 0.0
05 16:55 NW 14 10.00 Partly Cloudy SCT080 59 26.6 29% 29.78 0.0
05 16:35 W 13 G 21 10.00 Fair CLR 59 26.6 29% 29.79 0.0
05 16:15 NW 9 G 18 10.00 Fair CLR 60.8 24.8 25% 29.79 0.0
05 15:55 Vrbl 7 G 20 10.00 Fair CLR 59 24.8 27% 29.79 0.0
05 15:35 W 9 G 18 10.00 Fair CLR 59 24.8 27% 29.8 0.0
05 15:15 W 13 G 20 10.00 Fair CLR 59 24.8 27% 29.81 0.0
05 14:35 NW 14 G 21 10.00 Fair CLR 57.2 24.8 29% 29.81 0.0
05 14:15 W 10 G 22 10.00 A Few Clouds FEW080 59 24.8 27% 29.82 0.0
05 13:55 W 12 G 18 10.00 Fair CLR 57.2 24.8 29% 29.83 0.0
05 13:35 W 16 G 23 10.00 Fair CLR 59 24.8 27% 29.83 0.0
05 13:15 W 10 G 20 10.00 A Few Clouds FEW075 57.2 23 27% 29.83 0.0
05 12:55 W 14 G 20 10.00 A Few Clouds FEW075 57.2 24.8 29% 29.83 0.0
05 12:35 NW 12 10.00 Fair CLR 57.2 24.8 29% 29.84 0.0
05 12:15 NW 10 G 16 10.00 Fair CLR 55.4 23 28% 29.84 0.0
05 11:55 N 12 10.00 Fair CLR 53.6 24.8 33% 29.84 0.0
05 11:35 NW 10 G 17 10.00 Fair CLR 53.6 23 30% 29.84 0.0
05 11:15 Vrbl 5 G 16 10.00 Fair CLR 53.6 23 30% 29.84 0.0
05 10:35 NW 8 10.00 Fair CLR 51.8 21.2 30% 29.83 0.0
05 10:15 NW 14 10.00 Fair CLR 53.6 23 30% 29.83 0.0
05 09:55 NW 10 10.00 Fair CLR 51.8 21.2 30% 29.83 0.0
05 09:35 NW 13 10.00 Fair CLR 51.8 23 32% 29.83 0.0
05 09:15 N 8 10.00 Fair CLR 51.8 24.8 35% 29.82 0.0
05 08:55 NW 8 10.00 Fair CLR 51.8 24.8 35% 29.82 0.0
05 08:35 N 7 10.00 Fair CLR 50 26.6 40% 48 29.83 0.0
05 08:15 NW 6 10.00 Fair CLR 50 28.4 43% 48 29.84 0.0
05 07:55 W 6 10.00 Fair CLR 48.2 30.2 50% 46 29.84 0.0
05 07:35 W 5 10.00 Fair CLR 46.4 33.8 62% 45 29.85 0.0
05 07:15 W 3 10.00 Fair CLR 44.6 33.8 66% 29.84 0.0
05 06:55 Calm 10.00 Fair CLR 42.8 32 66% 29.83 0.0
05 06:35 Calm 10.00 Fair CLR 42.8 32 66% 29.82 0.0
05 06:15 Calm 10.00 Fair CLR 42.8 32 66% 29.8 0.0
05 05:55 SW 6 10.00 Fair CLR 41 32 70% 38 29.8 0.0
05 05:35 N 3 10.00 Fair CLR 44.6 28.4 53% 29.75 0.0
05 05:15 NW 3 10.00 Fair CLR 44.6 28.4 53% 29.75 0.0
05 04:55 NW 6 10.00 Fair CLR 46.4 26.6 46% 44 29.76 0.0
05 04:35 NW 5 10.00 Partly Cloudy SCT110 48.2 28.4 46% 47 29.77 0.0
05 04:15 Calm 10.00 Mostly Cloudy FEW070 BKN110 46.4 28.4 50% 29.77 0.0
05 03:55 NW 6 10.00 Overcast BKN070 OVC110 48.2 26.6 43% 46 29.76 0.0
05 03:35 N 7 G 15 10.00 Mostly Cloudy BKN070 BKN100 BKN120 48.2 24.8 40% 46 29.72 0.0
05 03:15 Calm 10.00 Mostly Cloudy BKN070 BKN090 BKN120 50 24.8 37% 29.75 0.0
05 02:55 N 12 10.00 Overcast BKN070 OVC095 50 26.6 40% 46 29.73 0.0
05 02:35 N 15 G 23 10.00 Overcast BKN070 OVC100 50 28.4 43% 45 29.72 0.0
05 02:15 NW 20 G 28 10.00 Mostly Cloudy FEW039 SCT055 BKN075 50 28.4 43% 44 29.71 0.0
05 01:55 NW 22 G 29 10.00 Overcast and Breezy SCT055 BKN075 OVC100 51.8 28.4 41% 29.69 0.0
05 01:35 N 16 G 24 10.00 Mostly Cloudy SCT090 BKN110 51.8 28.4 41% 29.68 0.0
05 01:15 NW 16 G 24 10.00 Partly Cloudy FEW090 SCT120 50 28.4 43% 45 29.69 0.0
05 00:55 NW 17 G 25 10.00 Mostly Cloudy FEW085 BKN110 51.8 28.4 41% 29.68 0.0
05 00:35 NW 17 G 26 10.00 Mostly Cloudy FEW039 FEW050 BKN100 51.8 30.2 44% 29.68 0.0
05 00:15 NW 13 G 22 10.00 Mostly Cloudy SCT100 BKN120 51.8 30.2 44% 29.68 0.0
04 23:55 NW 20 G 26 10.00 Mostly Cloudy BKN110 53.6 30.2 41% 29.66 0.0
04 23:35 NW 20 G 26 10.00 Partly Cloudy SCT110 53.6 32 44% 29.67 0.0
04 23:15 NW 15 G 26 10.00 Mostly Cloudy SCT100 BKN120 55.4 32 41% 29.66 0.0
04 22:55 NW 16 G 22 10.00 Mostly Cloudy SCT100 BKN120 57.2 32 39% 29.64 0.0
04 22:35 NW 16 G 22 10.00 Partly Cloudy SCT120 57.2 32 39% 29.64 0.0
04 22:15 NW 12 10.00 A Few Clouds FEW120 57.2 32 39% 29.64 0.0
04 21:55 NW 10 10.00 A Few Clouds FEW080 57.2 32 39% 29.63 0.0
04 21:35 NW 14 10.00 Fair CLR 59 30.2 34% 29.62 0.0
04 21:15 NW 10 10.00 Fair CLR 59 30.2 34% 29.61 0.0
04 20:55 NW 16 G 23 10.00 Fair CLR 60.8 30.2 31% 29.59 0.0
04 20:35 NW 15 G 26 10.00 Fair CLR 60.8 30.2 31% 29.58 0.0
04 20:15 NW 16 G 30 10.00 Fair CLR 62.6 30.2 30% 29.56 0.0
04 19:55 NW 17 G 29 10.00 Fair CLR 64.4 35.6 34% 29.54 0.0
04 19:35 NW 22 G 30 10.00 Fair and Breezy CLR 66.2 35.6 32% 29.53 0.0
04 19:15 NW 25 G 35 10.00 Fair and Breezy CLR 68 35.6 30% 29.51 0.0
04 18:55 NW 20 G 29 10.00 Fair CLR 71.6 35.6 27% 29.5 0.0
04 18:35 NW 21 G 30 10.00 Fair and Breezy CLR 71.6 37.4 29% 29.5 0.0
04 18:15 NW 24 G 32 10.00 Fair and Breezy CLR 73.4 37.4 27% 29.49 0.0
04 17:55 NW 22 G 30 10.00 Fair and Breezy CLR 75.2 37.4 25% 77 29.48 0.0
04 17:35 NW 18 G 25 10.00 Fair CLR 77 41 28% 78 29.47 0.0
04 17:15 NW 23 G 35 10.00 Fair and Breezy CLR 78.8 41 26% 78 29.46 0.0
04 16:55 NW 18 G 28 10.00 A Few Clouds FEW100 80.6 46.4 30% 80 29.45 0.0
04 16:35 NW 18 G 25 10.00 A Few Clouds FEW100 78.8 42.8 28% 78 29.44 0.0
04 16:15 W 16 G 29 10.00 A Few Clouds FEW095 FEW110 82.4 41 23% 80 29.44 0.0
04 15:55 W 22 G 29 9.00 A Few Clouds and Breezy FEW095 FEW110 82.4 42.8 25% 80 29.45 0.0
04 15:35 W 18 G 26 10.00 Partly Cloudy SCT095 SCT120 80.6 42.8 26% 79 29.45 0.0
04 15:15 W 22 10.00 Partly Cloudy and Breezy SCT090 80.6 42.8 26% 79 29.46 0.0
04 14:55 W 21 G 31 10.00 Partly Cloudy and Breezy SCT090 82.4 42.8 25% 80 29.47 0.0
04 14:35 W 22 G 29 10.00 Partly Cloudy and Breezy SCT090 82.4 42.8 25% 80 29.47 0.0
04 14:15 W 22 G 29 10.00 A Few Clouds and Breezy FEW095 82.4 42.8 25% 80 29.48 0.0
04 13:55 W 16 G 26 10.00 Partly Cloudy SCT095 78.8 42.8 28% 78 29.48 0.0
04 13:35 W 18 G 30 10.00 Partly Cloudy SCT090 78.8 42.8 28% 78 29.49 0.0
04 13:15 W 21 G 30 10.00 A Few Clouds and Breezy FEW085 78.8 42.8 28% 78 29.49 0.0
04 12:55 SW 21 G 28 10.00 Fair and Breezy CLR 78.8 46.4 32% 79 29.49 0.0
04 12:35 W 18 G 25 10.00 Fair CLR 78.8 44.6 30% 79 29.49 0.0
04 12:15 SW 15 G 22 10.00 Fair CLR 77 46.4 34% 78 29.5 0.0
04 11:55 SW 15 G 23 10.00 Fair CLR 77 44.6 32% 78 29.51 0.0
04 11:35 SW 17 G 24 10.00 Fair CLR 75.2 44.6 34% 77 29.51 0.0
04 11:15 SW 17 G 24 10.00 Fair CLR 75.2 44.6 34% 77 29.51 0.0
04 10:55 SW 17 10.00 Fair CLR 75.2 42.8 31% 77 29.52 0.0
04 10:35 SW 15 G 22 10.00 Fair CLR 73.4 41 31% 29.53 0.0
04 10:15 SW 15 G 22 10.00 Fair CLR 71.6 42.8 36% 29.54 0.0
04 09:55 SW 15 10.00 Fair CLR 69.8 42.8 38% 29.54 0.0
04 09:35 SW 13 10.00 Fair CLR 68 42.8 40% 29.55 0.0
04 09:15 SW 14 10.00 Fair CLR 66.2 42.8 43% 29.56 0.0
04 08:55 S 13 10.00 Fair CLR 64.4 42.8 46% 29.56 0.0
04 08:35 S 10 10.00 Fair CLR 62.6 41 45% 29.57 0.0
04 08:15 SW 10 10.00 Fair CLR 60.8 41 48% 29.58 0.0
04 07:55 SW 10 10.00 Fair CLR 59 39.2 48% 29.58 0.0
04 07:35 S 5 10.00 Fair CLR 55.4 42.8 63% 29.58 0.0
04 06:55 Calm 10.00 Fair CLR 51.8 39.2 62% 29.59 0.0
04 06:35 Calm 10.00 Fair CLR 50 37.4 62% 29.59 0.0
04 06:15 Calm 10.00 Fair CLR 46.4 37.4 71% 29.59 0.0
04 05:55 Calm 10.00 Fair CLR 48.2 37.4 66% 29.6 0.0
04 05:35 Calm 10.00 Fair CLR 48.2 37.4 66% 29.6 0.0
04 05:15 Calm 10.00 Fair CLR 46.4 39.2 76% 29.6 0.0
04 04:55 S 3 10.00 Fair CLR 46.4 39.2 76% 29.61 0.0
04 04:35 Calm 10.00 Fair CLR 44.6 39.2 81% 29.62 0.0
04 04:15 Calm 10.00 Fair CLR 44.6 39.2 81% 29.62 0.0
04 03:55 Calm 10.00 Fair CLR 46.4 39.2 76% 29.63 0.0
04 03:35 Calm 10.00 Fair CLR 46.4 39.2 76% 29.63 0.0
04 03:15 Calm 10.00 Fair CLR 41 39.2 93% 29.64 0.0
04 02:55 Calm 10.00 Fair CLR 42.8 41 93% 29.64 0.0
04 02:35 Calm 10.00 Fair CLR 42.8 42.8 100% 29.64 0.0
04 02:15 Calm 1.00 Fair CLR 44.6 41 87% 29.65 0.0
04 01:50 Calm 10.00 Fair CLR 42.8 42.8 100% 29.66 0.0
04 01:35 Calm 10.00 Fair CLR 44.6 42.8 93% 29.66 0.0
04 01:15 Calm 10.00 Fair CLR 46.4 41 82% 29.67 0.0
04 00:55 S 5 10.00 Fair CLR 44.6 42.8 93% 43 29.68 0.0
04 00:35 Calm 10.00 Fair CLR 46.4 41 82% 29.69 0.0
04 00:15 Calm 10.00 Fair CLR 48.2 41 76% 29.69 0.0
03 23:55 Calm 10.00 Fair CLR 46.4 41 82% 29.7 0.0
03 23:35 Calm 10.00 Fair CLR 53.6 37.4 54% 29.7 0.0
03 23:15 S 5 10.00 Fair CLR 48.2 41 76% 47 29.71 0.0
03 22:55 Calm 10.00 Fair CLR 51.8 39.2 62% 29.71 0.0
03 22:35 S 3 10.00 Fair CLR 50 39.2 67% 29.71 0.0
03 22:15 S 3 10.00 Fair CLR 50 39.2 67% 29.71 0.0
03 21:55 Calm 10.00 Fair CLR 57.2 37.4 48% 29.71 0.0
03 21:35 Calm 10.00 Fair CLR 57.2 37.4 48% 29.7 0.0
03 21:15 W 3 10.00 Fair CLR 59 35.6 42% 29.7 0.0
03 20:55 W 5 10.00 Fair CLR 60.8 35.6 39% 29.69 0.0
03 20:35 W 6 10.00 NULL NULL 62.6 35.6 37% 29.69 0.0
03 20:15 W 7 10.00 Fair CLR 64.4 33.8 32% 29.68 0.0
03 19:55 NW 9 10.00 Fair CLR 68 33.8 28% 29.67 0.0
03 19:35 W 9 10.00 Fair CLR 69.8 35.6 29% 29.67 0.0
03 19:15 W 9 G 16 10.00 Fair CLR 71.6 33.8 25% 29.67 0.0
03 18:55 W 9 G 17 10.00 Fair CLR 73.4 33.8 23% 29.67 0.0
03 18:35 W 16 10.00 Fair CLR 73.4 33.8 23% 29.66 0.0
03 18:10 W 14 G 24 10.00 Fair CLR 75.2 33.8 22% 76 29.66 0.0
03 17:55 NW 10 G 18 10.00 Fair CLR 75.2 35.6 24% 76 29.66 0.0
03 17:35 W 18 10.00 Fair CLR 75.2 37.4 25% 77 29.66 0.0
03 17:15 NW 16 10.00 Fair CLR 75.2 35.6 24% 76 29.65 0.0
03 16:55 NW 15 G 22 10.00 A Few Clouds FEW095 77 35.6 22% 77 29.65 0.0
03 16:35 W 15 G 25 10.00 A Few Clouds FEW090 75.2 37.4 25% 77 29.66 0.0
03 16:15 W 14 G 26 10.00 A Few Clouds FEW095 75.2 35.6 24% 76 29.66 0.0
03 15:55 W 16 10.00 Fair CLR 75.2 37.4 25% 77 29.66 0.0
03 15:35 NW 15 G 25 10.00 A Few Clouds FEW085 75.2 37.4 25% 77 29.67 0.0
03 15:15 W 14 G 22 9.00 A Few Clouds FEW080 75.2 39.2 27% 77 29.67 0.0
03 14:55 W 12 G 20 10.00 A Few Clouds FEW080 73.4 42.8 33% 29.68 0.0
03 14:35 W 10 10.00 Fair CLR 73.4 41 31% 29.69 0.0
03 14:15 SW 14 G 21 10.00 Fair CLR 71.6 42.8 36% 29.7 0.0
03 13:55 W 15 G 22 10.00 Fair CLR 71.6 41 33% 29.7 0.0
03 13:35 W 14 G 23 10.00 Fair CLR 69.8 41 35% 29.71 0.0
03 13:15 SW 14 10.00 Fair CLR 68 41 38% 29.72 0.0
03 12:55 SW 17 10.00 Fair CLR 68 41 38% 29.73 0.0
03 12:35 SW 17 G 24 10.00 Fair CLR 66.2 41 40% 29.74 0.0
03 12:15 SW 15 G 22 10.00 Fair CLR 66.2 41 40% 29.74 0.0
03 11:55 SW 15 G 26 10.00 Fair CLR 64.4 39.2 40% 29.75 0.0
03 11:35 SW 15 G 24 10.00 Fair CLR 62.6 39.2 42% 29.75 0.0
03 11:15 SW 20 G 26 10.00 A Few Clouds FEW100 62.6 39.2 42% 29.76 0.0
03 10:55 SW 18 G 25 10.00 A Few Clouds FEW100 60.8 39.2 45% 29.77 0.0
03 10:35 S 18 G 26 10.00 Fair CLR 59 39.2 48% 29.78 0.0
03 10:15 S 22 G 28 10.00 Fair and Breezy CLR 59 39.2 48% 29.78 0.0
03 09:55 S 17 G 25 10.00 Fair CLR 55.4 39.2 55% 29.79 0.0
03 09:35 S 17 G 24 10.00 Fair CLR 53.6 39.2 58% 29.8 0.0
03 09:15 S 16 G 22 10.00 Fair CLR 51.8 41 67% 29.81 0.0
03 08:55 S 17 G 24 10.00 Fair CLR 51.8 41 67% 29.8 0.0
03 08:35 S 16 G 23 10.00 Partly Cloudy FEW060 SCT070 50 39.2 67% 45 29.81 0.0
03 08:15 S 13 10.00 Overcast BKN060 OVC075 48.2 41 76% 43 29.83 0.0
03 07:55 SE 12 G 20 10.00 Light Rain BKN060 OVC070 48.2 41 76% 44 29.85 0.0
03 07:35 SE 10 10.00 Overcast FEW045 SCT055 OVC065 48.2 41 76% 44 29.86 0.0
03 07:15 SE 10 10.00 Light Rain FEW045 SCT055 BKN065 48.2 41 76% 44 29.88 0.0
03 06:55 SE 9 10.00 Mostly Cloudy SCT060 BKN095 48.2 41 76% 45 29.88 0.0
03 06:35 SE 9 10.00 Overcast FEW046 BKN055 OVC070 50 39.2 67% 47 29.88 0.0
03 06:15 SE 5 10.00 Overcast FEW021 BKN049 OVC065 50 39.2 67% 49 29.89 0.0
03 05:35 E 3 10.00 Overcast OVC075 50 39.2 67% 29.9 0.0
03 05:15 SE 7 10.00 Overcast BKN075 OVC090 50 39.2 67% 48 29.89 0.0
03 04:55 SE 7 10.00 Overcast OVC070 50 39.2 67% 48 29.9 0.0
03 04:35 S 5 10.00 Overcast FEW038 OVC070 48.2 44.6 87% 47 29.91 0.0
03 04:15 SE 5 G 12 4.00 Light Rain Haze FEW010 SCT032 BKN045 51.8 39.2 62% 29.92 0.0
03 03:55 W 15 9.00 Light Rain BKN048 BKN055 OVC075 53.6 37.4 54% 29.93 0.0
03 03:35 SW 15 10.00 Overcast FEW055 OVC070 51.8 33.8 50% 29.91 0.0
03 03:15 SW 10 10.00 Overcast SCT075 OVC090 50 33.8 54% 46 29.9 0.0
03 02:55 SW 10 10.00 Overcast BKN090 OVC110 50 33.8 54% 46 29.9 0.0
03 02:35 SW 7 G 14 10.00 Overcast OVC100 50 32 50% 48 29.91 0.0
03 02:15 S 6 10.00 Overcast OVC110 50 32 50% 48 29.91 0.0
03 01:55 S 7 10.00 Overcast OVC110 50 32 50% 48 29.91 0.0
03 01:35 S 8 10.00 Mostly Cloudy BKN120 50 32 50% 47 29.92 0.0
03 01:15 S 8 10.00 Partly Cloudy SCT120 50 32 50% 47 29.93 0.0
03 00:55 S 8 10.00 Partly Cloudy SCT110 50 32 50% 47 29.93 0.0
03 00:35 S 7 10.00 Partly Cloudy SCT110 50 32 50% 48 29.93 0.0
03 00:15 SW 10 10.00 A Few Clouds FEW120 51.8 32 47% 29.94 0.0
02 23:55 S 6 10.00 Fair CLR 50 33.8 54% 48 29.94 0.0
02 23:35 S 7 10.00 Fair CLR 48.2 33.8 58% 46 29.94 0.0
02 23:15 S 6 10.00 A Few Clouds FEW120 48.2 32 54% 46 29.95 0.0
02 22:55 S 6 10.00 A Few Clouds FEW120 48.2 32 54% 46 29.96 0.0
02 22:35 S 8 10.00 Fair CLR 48.2 32 54% 45 29.96 0.0
02 22:15 S 7 10.00 Fair CLR 48.2 32 54% 46 29.97 0.0
02 21:55 S 7 10.00 Fair CLR 48.2 32 54% 46 29.97 0.0
02 21:35 S 7 10.00 Fair CLR 48.2 32 54% 46 29.97 0.0
02 21:15 SW 5 10.00 Fair CLR 48.2 32 54% 47 29.97 0.0
02 20:55 SW 5 10.00 Fair CLR 51.8 30.2 44% 29.97 0.0
Date Time (cdt) Wind (mph) Vis. (mi.) Weather Sky Cond. Air Dwpt Max. Min. Relative Humidity Wind Chill (°F) Heat Index (°F) altimeter (in) sea level (mb) 1 hr 3 hr 6 hr
6 hour
Temperature (ºF) Pressure Precipitation (in)